Time;durP1;ratioP1;P1;durP2;ratioP2;P2;SDS_P1;SDS_P2;PMS_P1;PMS_P2;Temp;Humidity;BMP_temperature;BMP_pressure;BME280_temperature;BME280_humidity;BME280_pressure;Samples;Min_cycle;Max_cycle;Signal;HPM_P1;HPM_P2
2023/12/30 00:00:44;;;;;;;4.97;1.70;;;7.70;99.90;;;;;;5074286;28;20201;-65
2023/12/30 00:03:11;;;;;;;2.97;1.38;;;7.70;99.90;;;;;;5074124;28;20205;-64
2023/12/30 00:05:37;;;;;;;3.08;1.35;;;7.80;99.90;;;;;;5074449;28;20203;-63
2023/12/30 00:08:04;;;;;;;2.83;1.90;;;7.80;99.90;;;;;;5075056;28;20204;-64
2023/12/30 00:10:31;;;;;;;1.92;1.30;;;7.80;99.90;;;;;;5075143;28;20207;-63
2023/12/30 00:12:58;;;;;;;2.35;0.98;;;7.90;99.90;;;;;;5074583;28;20221;-63
2023/12/30 00:15:25;;;;;;;1.70;1.20;;;7.90;99.90;;;;;;5074604;28;20682;-63
2023/12/30 00:17:53;;;;;;;3.70;1.02;;;7.80;99.90;;;;;;5074112;28;20228;-63
2023/12/30 00:20:20;;;;;;;1.90;1.10;;;7.80;99.90;;;;;;5075162;28;20207;-63
2023/12/30 00:22:47;;;;;;;1.60;1.10;;;7.70;99.90;;;;;;5075454;28;20315;-63
2023/12/30 00:25:14;;;;;;;0.80;0.80;;;7.60;99.90;;;;;;5078342;28;20209;-64
2023/12/30 00:27:41;;;;;;;1.30;1.02;;;7.60;99.90;;;;;;5079154;28;20672;-64
2023/12/30 00:30:09;;;;;;;1.55;1.00;;;7.60;99.90;;;;;;5081435;28;20201;-64
2023/12/30 00:32:36;;;;;;;2.25;1.10;;;7.60;99.90;;;;;;5080601;28;20726;-62
2023/12/30 00:35:04;;;;;;;4.20;1.10;;;7.60;99.90;;;;;;5080701;28;20197;-64
2023/12/30 00:37:31;;;;;;;1.33;1.02;;;7.50;99.90;;;;;;5080333;28;20712;-63
2023/12/30 00:39:58;;;;;;;2.03;1.10;;;7.50;99.90;;;;;;5080816;28;20360;-62
2023/12/30 00:42:25;;;;;;;1.20;1.00;;;7.50;99.90;;;;;;5079477;28;20216;-64
2023/12/30 00:44:51;;;;;;;2.78;1.15;;;7.50;99.90;;;;;;5079794;28;20250;-64
2023/12/30 00:47:18;;;;;;;1.05;0.95;;;7.50;99.90;;;;;;5080504;28;20201;-63
2023/12/30 00:49:45;;;;;;;1.95;0.98;;;7.50;99.90;;;;;;5079651;28;20207;-64
2023/12/30 00:52:13;;;;;;;0.98;0.60;;;7.50;99.90;;;;;;5079030;28;20216;-63
2023/12/30 00:54:40;;;;;;;2.55;0.80;;;7.50;99.90;;;;;;5078694;28;20252;-64
2023/12/30 00:57:07;;;;;;;1.95;1.00;;;7.50;99.90;;;;;;5078503;28;20209;-63
2023/12/30 00:59:34;;;;;;;1.73;0.95;;;7.40;99.90;;;;;;5078247;28;20671;-64
2023/12/30 01:02:01;;;;;;;1.10;0.80;;;7.50;99.90;;;;;;5079039;28;20312;-63
2023/12/30 01:04:28;;;;;;;1.23;0.73;;;7.50;99.90;;;;;;5077948;28;20623;-63
2023/12/30 01:06:55;;;;;;;1.20;0.60;;;7.50;99.90;;;;;;5078174;28;20570;-64
2023/12/30 01:09:23;;;;;;;1.95;1.30;;;7.60;99.90;;;;;;5078277;28;20685;-64
2023/12/30 01:11:50;;;;;;;1.17;1.02;;;7.60;99.90;;;;;;5078775;28;20248;-63
2023/12/30 01:14:16;;;;;;;1.00;0.80;;;7.60;99.90;;;;;;5077609;28;20227;-63
2023/12/30 01:16:43;;;;;;;0.80;0.70;;;7.60;99.90;;;;;;5078272;28;20205;-64
2023/12/30 01:19:10;;;;;;;0.70;0.68;;;7.50;99.90;;;;;;5077973;28;20316;-63
2023/12/30 01:21:37;;;;;;;2.72;0.85;;;7.50;99.90;;;;;;5077319;28;20224;-63
2023/12/30 01:24:04;;;;;;;0.93;0.60;;;7.50;99.90;;;;;;5077251;28;20201;-64
2023/12/30 01:26:32;;;;;;;2.30;0.80;;;7.40;99.90;;;;;;5077124;28;20201;-63
2023/12/30 01:28:59;;;;;;;1.45;0.68;;;7.40;99.90;;;;;;5076849;28;20201;-63
2023/12/30 01:31:25;;;;;;;0.90;0.90;;;7.30;99.90;;;;;;5076633;28;20225;-64
2023/12/30 01:33:52;;;;;;;0.70;0.60;;;7.30;99.90;;;;;;5076356;28;20685;-62
2023/12/30 01:36:19;;;;;;;1.48;0.65;;;7.20;99.90;;;;;;5076551;28;20207;-64
2023/12/30 01:38:46;;;;;;;1.05;0.80;;;7.20;99.90;;;;;;5076910;28;20221;-64
2023/12/30 01:41:13;;;;;;;1.58;0.68;;;7.10;99.90;;;;;;5076901;28;20232;-64
2023/12/30 01:43:41;;;;;;;2.17;0.70;;;7.10;99.90;;;;;;5077391;28;20212;-64
2023/12/30 01:46:09;;;;;;;3.53;0.80;;;7.10;99.90;;;;;;5076393;28;20197;-64
2023/12/30 01:48:37;;;;;;;2.22;0.80;;;7.10;99.90;;;;;;5082114;28;20197;-64
2023/12/30 01:51:07;;;;;;;4.40;1.35;;;7.10;99.90;;;;;;5079887;28;20236;-64
2023/12/30 01:53:36;;;;;;;1.42;0.65;;;7.10;99.90;;;;;;5082016;28;20197;-64
2023/12/30 01:56:04;;;;;;;1.20;1.00;;;7.00;99.90;;;;;;5081058;28;20663;-64
2023/12/30 01:58:31;;;;;;;1.33;0.82;;;7.00;99.90;;;;;;5079877;28;20227;-64
2023/12/30 02:01:01;;;;;;;0.90;0.60;;;6.90;99.90;;;;;;5079041;28;20200;-64
2023/12/30 02:03:28;;;;;;;0.90;0.70;;;6.90;99.90;;;;;;5078808;28;20189;-64
2023/12/30 02:05:54;;;;;;;0.75;0.70;;;6.90;99.90;;;;;;5080847;28;20273;-63
2023/12/30 02:08:21;;;;;;;2.47;0.63;;;6.90;99.90;;;;;;5076571;28;20551;-65
2023/12/30 02:10:48;;;;;;;1.67;0.70;;;7.00;99.90;;;;;;5075904;28;20292;-65
2023/12/30 02:13:15;;;;;;;1.70;0.88;;;7.00;99.90;;;;;;5075664;28;20201;-64
2023/12/30 02:15:42;;;;;;;2.00;1.20;;;7.00;99.90;;;;;;5075877;28;20197;-64
2023/12/30 02:18:10;;;;;;;1.15;0.98;;;7.00;99.90;;;;;;5075759;28;20572;-63
2023/12/30 02:20:37;;;;;;;1.42;0.80;;;7.10;99.90;;;;;;5075340;28;20555;-63
2023/12/30 02:23:05;;;;;;;3.30;1.02;;;7.10;99.90;;;;;;5075758;28;20227;-64
2023/12/30 02:25:32;;;;;;;1.35;0.75;;;7.20;99.90;;;;;;5075616;28;20701;-62
2023/12/30 02:27:59;;;;;;;1.63;0.80;;;7.10;99.90;;;;;;5075445;28;20689;-64
2023/12/30 02:30:25;;;;;;;2.58;1.00;;;7.10;99.90;;;;;;5076463;28;20696;-64
2023/12/30 02:32:56;;;;;;;1.77;1.15;;;7.10;99.90;;;;;;5076970;28;20733;-63
2023/12/30 02:35:24;;;;;;;3.28;0.90;;;7.10;99.90;;;;;;5077703;28;20197;-65
2023/12/30 02:37:51;;;;;;;3.10;1.58;;;7.00;99.90;;;;;;5076274;28;20729;-65
2023/12/30 02:40:19;;;;;;;4.53;1.30;;;7.00;99.90;;;;;;5075289;28;20205;-64
2023/12/30 02:42:46;;;;;;;4.38;1.20;;;7.00;99.90;;;;;;5075183;28;20225;-63
2023/12/30 02:45:13;;;;;;;4.05;1.15;;;7.10;99.90;;;;;;5079008;28;20205;-65
2023/12/30 02:47:40;;;;;;;2.50;1.15;;;7.00;99.90;;;;;;5083501;28;20213;-64
2023/12/30 02:50:08;;;;;;;1.40;1.10;;;7.00;99.90;;;;;;5081188;28;20205;-64
2023/12/30 02:52:34;;;;;;;2.03;0.90;;;7.00;99.90;;;;;;5075162;28;20225;-64
2023/12/30 02:55:03;;;;;;;2.92;1.10;;;7.00;99.90;;;;;;5075014;28;20197;-63
2023/12/30 02:57:31;;;;;;;3.17;1.10;;;7.00;99.90;;;;;;5074624;28;20205;-63
2023/12/30 02:59:58;;;;;;;2.58;0.90;;;6.90;99.90;;;;;;5074659;28;20205;-63
2023/12/30 03:02:24;;;;;;;1.33;0.98;;;6.90;99.90;;;;;;5085585;22;20726;-64
2023/12/30 03:04:52;;;;;;;3.20;1.25;;;6.90;99.90;;;;;;5055297;28;20569;-65
2023/12/30 03:07:19;;;;;;;1.98;0.98;;;6.80;99.90;;;;;;5054043;28;20210;-63
2023/12/30 03:09:46;;;;;;;5.80;1.35;;;6.80;99.90;;;;;;5054691;28;20201;-62
2023/12/30 03:12:14;;;;;;;3.92;1.20;;;6.80;99.90;;;;;;5055266;28;20243;-63
2023/12/30 03:14:43;;;;;;;1.65;1.05;;;6.80;99.90;;;;;;5054887;28;20264;-62
2023/12/30 03:17:09;;;;;;;3.10;1.02;;;6.80;99.90;;;;;;5055084;28;20206;-62
2023/12/30 03:19:36;;;;;;;3.53;1.30;;;6.70;99.90;;;;;;5054373;28;20232;-63
2023/12/30 03:22:03;;;;;;;4.05;1.30;;;6.70;99.90;;;;;;5054361;28;20324;-63
2023/12/30 03:24:30;;;;;;;2.35;1.00;;;6.70;99.90;;;;;;5054930;28;20231;-63
2023/12/30 03:26:57;;;;;;;2.97;1.08;;;6.70;99.90;;;;;;5054740;28;20202;-62
2023/12/30 03:29:23;;;;;;;6.72;1.25;;;6.70;99.90;;;;;;5054414;28;20194;-62
2023/12/30 03:31:53;;;;;;;3.13;1.20;;;6.70;99.90;;;;;;5055199;28;20222;-63
2023/12/30 03:34:20;;;;;;;3.65;1.27;;;6.60;99.90;;;;;;5054914;28;20202;-64
2023/12/30 03:36:47;;;;;;;5.57;1.60;;;6.60;99.90;;;;;;5055906;28;20292;-62
2023/12/30 03:39:14;;;;;;;3.55;1.00;;;6.60;99.90;;;;;;5055072;28;20221;-64
2023/12/30 03:41:40;;;;;;;3.08;1.20;;;6.50;99.90;;;;;;5054790;28;20222;-63
2023/12/30 03:44:07;;;;;;;2.08;1.15;;;6.50;99.90;;;;;;5053793;28;20586;-63
2023/12/30 03:46:34;;;;;;;7.68;1.55;;;6.50;99.90;;;;;;5053917;28;20208;-63
2023/12/30 03:49:02;;;;;;;2.22;0.93;;;6.50;99.90;;;;;;5053528;28;20198;-63
2023/12/30 03:51:29;;;;;;;6.75;1.45;;;6.50;99.90;;;;;;5053944;28;20257;-63
2023/12/30 03:53:56;;;;;;;3.10;1.25;;;6.50;99.90;;;;;;5053763;28;20205;-63
2023/12/30 03:56:22;;;;;;;6.28;1.10;;;6.60;99.90;;;;;;5053794;28;20207;-63
2023/12/30 03:58:49;;;;;;;4.70;1.00;;;6.60;99.90;;;;;;5053736;28;20703;-63
2023/12/30 04:01:16;;;;;;;5.68;1.20;;;6.60;99.90;;;;;;5053373;28;20236;-62
2023/12/30 04:03:43;;;;;;;1.38;0.93;;;6.60;99.90;;;;;;5054112;28;20212;-62
2023/12/30 04:06:19;;;;;;;2.80;1.25;;;6.60;99.90;;;;;;5053887;28;20698;-63
2023/12/30 04:08:45;;;;;;;4.13;1.15;;;6.60;99.90;;;;;;5054178;28;20240;-63
2023/12/30 04:12:51;;;;;;;5.85;1.50;;;6.50;99.90;;;;;;5091697;28;20616;-62
2023/12/30 04:15:18;;;;;;;1.88;1.00;;;6.50;99.90;;;;;;5091827;28;20232;-62
2023/12/30 04:17:45;;;;;;;7.25;1.98;;;6.50;99.90;;;;;;5092449;28;20200;-63
2023/12/30 04:20:12;;;;;;;2.40;1.45;;;6.40;99.90;;;;;;5091415;28;20200;-63
2023/12/30 04:22:39;;;;;;;1.80;1.00;;;6.40;99.90;;;;;;5090287;28;20702;-62
2023/12/30 04:25:07;;;;;;;5.97;1.88;;;6.40;99.90;;;;;;5092528;28;20204;-62
2023/12/30 04:27:34;;;;;;;6.43;1.50;;;6.40;99.90;;;;;;5092196;28;20249;-63
2023/12/30 04:30:02;;;;;;;3.13;1.23;;;6.40;99.90;;;;;;5090704;28;20288;-63
2023/12/30 04:32:29;;;;;;;10.02;1.50;;;6.40;99.90;;;;;;5090208;28;20235;-63
2023/12/30 04:34:55;;;;;;;1.70;1.00;;;6.30;99.90;;;;;;5090205;28;20197;-62
2023/12/30 04:37:22;;;;;;;4.50;1.23;;;6.30;99.90;;;;;;5090423;28;20576;-63
2023/12/30 04:39:49;;;;;;;1.20;1.10;;;6.30;99.90;;;;;;5091072;28;20225;-62
2023/12/30 04:42:16;;;;;;;4.85;1.50;;;6.20;99.90;;;;;;5089606;28;20730;-63
2023/12/30 04:44:42;;;;;;;5.20;1.30;;;6.20;99.90;;;;;;5089917;28;20246;-62
2023/12/30 04:47:11;;;;;;;2.80;1.02;;;6.20;99.90;;;;;;5090479;28;20582;-62
2023/12/30 04:49:37;;;;;;;2.88;1.00;;;6.20;99.90;;;;;;5089938;28;20227;-62
2023/12/30 04:52:04;;;;;;;3.80;1.40;;;6.30;99.90;;;;;;5089725;28;20608;-63
2023/12/30 04:54:31;;;;;;;3.78;1.30;;;6.30;99.90;;;;;;5090324;28;20196;-63
2023/12/30 04:56:58;;;;;;;7.22;1.65;;;6.40;99.90;;;;;;5090239;28;20224;-63
2023/12/30 04:59:25;;;;;;;4.65;1.23;;;6.30;99.90;;;;;;5090638;28;20655;-62
2023/12/30 05:01:52;;;;;;;5.55;1.10;;;6.30;99.90;;;;;;5099746;22;20256;-61
2023/12/30 05:04:20;;;;;;;4.30;1.30;;;6.30;99.90;;;;;;5069747;28;20643;-62
2023/12/30 05:06:47;;;;;;;5.63;1.38;;;6.40;99.90;;;;;;5069634;28;20263;-62
2023/12/30 05:09:14;;;;;;;4.40;1.52;;;6.30;99.90;;;;;;5069483;28;20208;-60
2023/12/30 05:11:44;;;;;;;5.70;2.90;;;6.30;99.90;;;;;;5069582;28;20248;-63
2023/12/30 05:14:11;;;;;;;2.22;1.67;;;6.30;99.90;;;;;;5069308;28;20201;-62
2023/12/30 05:16:43;;;;;;;2.45;1.20;;;6.40;99.90;;;;;;5069216;28;20201;-62
2023/12/30 05:19:10;;;;;;;5.70;1.30;;;6.30;99.90;;;;;;5069204;28;20182;-62
2023/12/30 05:21:38;;;;;;;3.40;1.70;;;6.30;99.90;;;;;;5068795;28;20221;-62
2023/12/30 05:24:06;;;;;;;5.07;1.70;;;6.30;99.90;;;;;;5056573;28;20550;-62
2023/12/30 05:26:32;;;;;;;13.43;2.67;;;6.30;99.90;;;;;;5055793;28;20205;-63
2023/12/30 05:28:59;;;;;;;5.85;2.05;;;6.30;99.90;;;;;;5055567;28;20202;-62
2023/12/30 05:31:26;;;;;;;3.70;1.40;;;6.20;99.90;;;;;;5055001;28;20225;-63
2023/12/30 05:33:53;;;;;;;5.03;1.65;;;6.30;99.90;;;;;;5055219;28;20721;-62
2023/12/30 05:36:20;;;;;;;3.10;1.40;;;6.30;99.90;;;;;;5055060;28;20205;-62
2023/12/30 05:38:48;;;;;;;6.28;1.70;;;6.30;99.90;;;;;;5055090;28;20202;-62
2023/12/30 05:41:15;;;;;;;4.47;1.52;;;6.40;99.90;;;;;;5054989;28;20198;-63
2023/12/30 05:43:42;;;;;;;6.47;2.22;;;6.40;99.90;;;;;;5055332;28;20216;-62
2023/12/30 05:46:08;;;;;;;6.05;2.00;;;6.50;99.90;;;;;;5054947;28;20546;-63
2023/12/30 05:48:35;;;;;;;8.88;2.10;;;6.50;99.90;;;;;;5055239;28;20198;-61
2023/12/30 05:51:02;;;;;;;4.93;2.00;;;6.60;99.90;;;;;;5057656;28;20208;-62
2023/12/30 05:53:29;;;;;;;3.85;1.95;;;6.70;99.90;;;;;;5067441;28;20206;-62
2023/12/30 05:55:57;;;;;;;7.85;1.83;;;6.70;99.90;;;;;;5059243;28;20327;-63
2023/12/30 05:58:24;;;;;;;5.15;2.20;;;6.70;99.90;;;;;;5058027;28;20351;-63
2023/12/30 06:00:51;;;;;;;5.13;2.28;;;6.80;99.90;;;;;;5058468;28;20292;-63
2023/12/30 06:03:18;;;;;;;3.33;1.90;;;6.80;99.90;;;;;;5061030;28;20222;-62
2023/12/30 06:05:44;;;;;;;14.60;3.28;;;6.80;99.90;;;;;;5055292;28;20228;-63
2023/12/30 06:08:11;;;;;;;4.07;2.28;;;6.80;99.90;;;;;;5055396;28;20228;-64
2023/12/30 06:10:38;;;;;;;12.05;2.08;;;6.80;99.90;;;;;;5054962;28;20296;-62
2023/12/30 06:13:06;;;;;;;2.63;2.05;;;6.80;99.90;;;;;;5054548;28;20229;-63
2023/12/30 06:15:33;;;;;;;3.58;1.88;;;6.80;99.90;;;;;;5054755;28;20225;-62
2023/12/30 06:18:00;;;;;;;10.48;2.10;;;6.80;99.90;;;;;;5054966;28;20307;-63
2023/12/30 06:20:27;;;;;;;7.80;2.78;;;6.80;99.90;;;;;;5054725;28;20548;-63
2023/12/30 06:22:54;;;;;;;7.28;3.05;;;6.70;99.90;;;;;;5054747;28;20333;-62
2023/12/30 06:25:21;;;;;;;5.20;2.33;;;6.70;99.90;;;;;;5054888;28;20197;-63
2023/12/30 06:27:47;;;;;;;3.97;2.53;;;6.60;99.90;;;;;;5054814;28;20204;-63
2023/12/30 06:30:16;;;;;;;6.10;3.15;;;6.60;99.90;;;;;;5055054;28;20206;-63
2023/12/30 06:32:42;;;;;;;7.75;2.10;;;6.60;99.90;;;;;;5055048;28;20226;-63
2023/12/30 06:35:09;;;;;;;4.60;2.15;;;6.60;99.90;;;;;;5053542;28;20293;-60
2023/12/30 06:37:36;;;;;;;6.20;2.08;;;6.60;99.90;;;;;;5055115;28;20197;-62
2023/12/30 06:40:03;;;;;;;4.85;1.98;;;6.60;99.90;;;;;;5054162;28;20204;-61
2023/12/30 06:42:30;;;;;;;6.75;2.80;;;6.60;99.90;;;;;;5054836;28;20214;-63
2023/12/30 06:44:57;;;;;;;4.20;2.17;;;6.50;99.90;;;;;;5054311;28;20201;-60
2023/12/30 06:47:25;;;;;;;4.57;2.13;;;6.50;99.90;;;;;;5054473;28;20259;-63
2023/12/30 06:49:52;;;;;;;3.65;2.30;;;6.60;99.90;;;;;;5054453;28;20208;-64
2023/12/30 06:52:19;;;;;;;5.50;1.85;;;6.60;99.90;;;;;;5054148;28;20222;-61
2023/12/30 06:54:46;;;;;;;5.82;2.58;;;6.60;99.90;;;;;;5053808;28;20205;-62
2023/12/30 06:57:13;;;;;;;7.13;1.98;;;6.60;99.90;;;;;;5054279;28;20204;-62
2023/12/30 06:59:39;;;;;;;8.70;2.42;;;6.60;99.90;;;;;;5053938;28;20202;-62
2023/12/30 07:02:06;;;;;;;4.50;1.85;;;6.60;99.90;;;;;;5053750;28;20225;-62
2023/12/30 07:04:36;;;;;;;6.80;2.47;;;6.60;99.90;;;;;;5054749;28;20297;-61
2023/12/30 07:07:02;;;;;;;2.85;1.85;;;6.60;99.90;;;;;;5054043;28;20206;-62
2023/12/30 07:09:29;;;;;;;5.85;2.80;;;6.60;99.90;;;;;;5054353;28;20211;-61
2023/12/30 07:11:56;;;;;;;5.65;2.20;;;6.60;99.90;;;;;;5054059;28;20225;-61
2023/12/30 07:14:23;;;;;;;5.25;2.10;;;6.60;99.90;;;;;;5053796;28;20202;-63
2023/12/30 07:16:50;;;;;;;7.75;2.05;;;6.60;99.90;;;;;;5053830;28;20201;-63
2023/12/30 07:19:17;;;;;;;6.20;1.95;;;6.60;99.90;;;;;;5053825;28;20206;-63
2023/12/30 07:21:45;;;;;;;5.60;2.10;;;6.60;99.90;;;;;;5053928;28;20214;-62
2023/12/30 07:24:12;;;;;;;4.45;1.65;;;6.60;99.90;;;;;;5053668;28;20291;-63
2023/12/30 07:26:39;;;;;;;6.32;3.45;;;6.60;99.90;;;;;;5053370;28;20198;-61
2023/12/30 07:29:06;;;;;;;3.55;2.08;;;6.60;99.90;;;;;;5053261;28;20197;-62
2023/12/30 07:31:32;;;;;;;6.00;2.28;;;6.50;99.90;;;;;;5052908;28;20738;-63
2023/12/30 07:33:59;;;;;;;8.65;2.60;;;6.50;99.90;;;;;;5052851;28;20694;-63
2023/12/30 07:36:27;;;;;;;5.55;3.13;;;6.50;99.90;;;;;;5053040;28;20202;-63
2023/12/30 07:38:55;;;;;;;4.40;3.00;;;6.50;99.90;;;;;;5052959;28;20243;-62
2023/12/30 07:41:21;;;;;;;9.55;2.75;;;6.60;99.90;;;;;;5052327;28;20225;-62
2023/12/30 07:43:49;;;;;;;4.38;2.70;;;6.60;99.90;;;;;;5053071;28;20204;-62
2023/12/30 07:46:16;;;;;;;6.15;2.40;;;6.60;99.90;;;;;;5053167;28;20206;-62
2023/12/30 07:48:43;;;;;;;5.28;2.38;;;6.60;99.90;;;;;;5053209;28;20541;-63
2023/12/30 07:51:10;;;;;;;4.80;2.10;;;6.70;99.90;;;;;;5061510;28;20232;-62
2023/12/30 07:53:38;;;;;;;4.95;2.25;;;6.70;99.90;;;;;;5060701;28;20266;-62
2023/12/30 07:56:06;;;;;;;4.57;2.63;;;6.70;99.90;;;;;;5053139;28;20288;-60
2023/12/30 07:58:33;;;;;;;4.72;1.90;;;6.70;99.90;;;;;;5054378;28;20201;-62
2023/12/30 08:01:00;;;;;;;5.85;2.38;;;6.80;99.90;;;;;;5053855;28;20206;-62
2023/12/30 08:03:27;;;;;;;6.72;2.95;;;6.80;99.90;;;;;;5054806;28;20686;-62
2023/12/30 08:05:53;;;;;;;5.80;2.70;;;6.80;99.90;;;;;;5053106;28;20648;-61
2023/12/30 08:08:20;;;;;;;8.23;3.05;;;6.80;99.90;;;;;;5055411;28;20202;-62
2023/12/30 08:10:47;;;;;;;4.57;2.60;;;6.80;99.90;;;;;;5057194;28;20685;-61
2023/12/30 08:13:16;;;;;;;6.18;2.75;;;6.80;99.90;;;;;;5056024;28;20602;-62
2023/12/30 08:15:42;;;;;;;5.25;2.28;;;6.90;99.90;;;;;;5056991;28;20240;-62
2023/12/30 08:18:11;;;;;;;5.60;2.63;;;6.90;99.90;;;;;;5056017;28;20202;-61
2023/12/30 08:20:37;;;;;;;4.93;2.70;;;6.90;99.90;;;;;;5055486;28;20209;-61
2023/12/30 08:23:04;;;;;;;7.47;2.70;;;6.90;99.90;;;;;;5057023;28;20304;-63
2023/12/30 08:25:31;;;;;;;5.10;2.88;;;7.00;99.90;;;;;;5056483;28;20216;-61
2023/12/30 08:27:58;;;;;;;9.82;2.97;;;7.00;99.90;;;;;;5058077;28;20201;-63
2023/12/30 08:30:26;;;;;;;3.72;2.42;;;7.00;99.90;;;;;;5058309;28;20208;-63
2023/12/30 08:32:52;;;;;;;7.28;2.70;;;7.00;99.90;;;;;;5056680;28;20225;-63
2023/12/30 08:35:19;;;;;;;5.43;2.55;;;7.10;99.90;;;;;;5058683;28;20202;-63
2023/12/30 08:37:46;;;;;;;5.93;2.85;;;7.10;99.90;;;;;;5059616;28;20738;-63
2023/12/30 08:40:14;;;;;;;4.60;2.78;;;7.10;99.90;;;;;;5059050;28;20208;-63
2023/12/30 08:42:44;;;;;;;4.95;2.30;;;7.10;99.90;;;;;;5056742;28;20272;-62
2023/12/30 08:45:18;;;;;;;8.52;2.80;;;7.20;99.90;;;;;;5058320;28;20205;-63
2023/12/30 08:47:46;;;;;;;9.48;2.80;;;7.20;99.90;;;;;;5055587;28;20232;-66
2023/12/30 08:50:13;;;;;;;6.30;2.88;;;7.20;99.90;;;;;;5056716;28;20201;-64
2023/12/30 08:52:40;;;;;;;4.03;2.28;;;7.20;99.90;;;;;;5055295;28;20240;-63
2023/12/30 08:55:11;;;;;;;7.38;2.60;;;7.30;99.90;;;;;;5053937;28;20206;-62
2023/12/30 08:57:37;;;;;;;3.97;2.03;;;7.30;99.90;;;;;;5054930;28;20240;-65
2023/12/30 09:00:08;;;;;;;8.23;2.40;;;7.30;99.90;;;;;;5058173;28;20269;-62
2023/12/30 09:02:35;;;;;;;6.18;2.80;;;7.40;99.90;;;;;;5057099;28;20317;-62
2023/12/30 09:05:04;;;;;;;7.32;2.50;;;7.50;99.90;;;;;;5057735;28;20212;-62
2023/12/30 09:07:31;;;;;;;5.32;2.03;;;7.50;99.90;;;;;;5057136;28;20201;-63
2023/12/30 09:09:58;;;;;;;5.03;1.98;;;7.60;99.90;;;;;;5056691;28;20202;-62
2023/12/30 09:12:25;;;;;;;5.03;3.15;;;7.60;99.90;;;;;;5057471;28;20324;-62
2023/12/30 09:14:52;;;;;;;4.32;2.35;;;7.70;99.90;;;;;;5057154;28;20288;-62
2023/12/30 09:17:19;;;;;;;6.30;1.98;;;7.70;99.90;;;;;;5057415;28;20205;-63
2023/12/30 09:19:45;;;;;;;3.17;2.28;;;7.80;99.90;;;;;;5057523;28;20205;-62
2023/12/30 09:22:13;;;;;;;6.80;2.67;;;7.80;99.90;;;;;;5057260;28;20222;-62
2023/12/30 09:24:41;;;;;;;5.03;2.45;;;7.80;99.90;;;;;;5057417;28;20212;-63
2023/12/30 09:27:08;;;;;;;3.33;2.30;;;7.90;99.90;;;;;;5057531;28;20275;-62
2023/12/30 09:29:35;;;;;;;9.07;2.95;;;7.90;99.90;;;;;;5057305;28;20228;-62
2023/12/30 09:32:02;;;;;;;4.20;2.53;;;7.90;99.90;;;;;;5056685;28;20224;-63
2023/12/30 09:34:29;;;;;;;6.03;2.60;;;7.90;99.90;;;;;;5055909;28;20297;-62
2023/12/30 09:36:56;;;;;;;2.63;2.15;;;7.90;99.90;;;;;;5055396;28;20213;-62
2023/12/30 09:39:24;;;;;;;9.18;2.78;;;7.90;99.90;;;;;;5056277;28;20208;-62
2023/12/30 09:41:51;;;;;;;6.43;2.67;;;7.90;99.90;;;;;;5056183;28;20590;-63
2023/12/30 09:44:18;;;;;;;4.85;2.05;;;7.90;99.90;;;;;;5055902;28;20219;-63
2023/12/30 09:46:50;;;;;;;4.78;2.22;;;7.90;99.90;;;;;;5056242;28;20198;-62
2023/12/30 09:49:17;;;;;;;6.00;2.30;;;7.90;99.90;;;;;;5055959;28;20674;-63
2023/12/30 09:51:44;;;;;;;6.60;2.55;;;8.00;99.90;;;;;;5055500;28;20225;-62
2023/12/30 09:54:11;;;;;;;6.00;2.65;;;8.00;99.90;;;;;;5061896;28;20206;-62
2023/12/30 09:56:41;;;;;;;6.13;2.33;;;8.20;99.90;;;;;;5071341;28;20240;-63
2023/12/30 09:59:08;;;;;;;7.68;2.20;;;8.20;99.90;;;;;;5057807;28;20293;-63
2023/12/30 10:01:35;;;;;;;2.78;2.47;;;8.30;99.90;;;;;;5056173;28;20610;-62
2023/12/30 10:04:03;;;;;;;7.22;2.80;;;8.30;99.90;;;;;;5056041;28;20192;-62
2023/12/30 10:06:33;;;;;;;5.03;2.20;;;8.40;99.90;;;;;;5055741;28;20284;-62
2023/12/30 10:09:00;;;;;;;5.65;2.60;;;8.40;99.90;;;;;;5056018;28;20201;-63
2023/12/30 10:11:27;;;;;;;5.20;2.70;;;8.40;99.90;;;;;;5056251;28;20225;-61
2023/12/30 10:13:55;;;;;;;10.63;2.65;;;8.40;99.90;;;;;;5056071;28;20226;-63
2023/12/30 10:16:22;;;;;;;5.78;2.85;;;8.50;99.90;;;;;;5057131;28;20597;-63
2023/12/30 10:18:49;;;;;;;4.60;2.83;;;8.50;99.90;;;;;;5057793;28;20667;-62
2023/12/30 10:21:17;;;;;;;5.10;2.70;;;8.50;99.90;;;;;;5056438;28;20206;-63
2023/12/30 10:23:48;;;;;;;5.80;1.65;;;8.50;99.90;;;;;;5055420;28;20651;-62
2023/12/30 10:26:14;;;;;;;4.35;1.77;;;8.50;99.90;;;;;;5055803;28;20531;-62
2023/12/30 10:28:41;;;;;;;3.80;1.98;;;8.50;99.90;;;;;;5055726;28;20208;-63
2023/12/30 10:31:11;;;;;;;4.05;2.20;;;8.50;99.90;;;;;;5055416;28;20209;-64
2023/12/30 10:33:38;;;;;;;4.68;1.77;;;8.50;99.90;;;;;;5055704;28;20210;-62
2023/12/30 10:36:06;;;;;;;9.20;2.10;;;8.50;99.90;;;;;;5056148;28;20205;-62
2023/12/30 10:38:33;;;;;;;5.45;2.05;;;8.50;99.90;;;;;;5056441;28;20251;-62
2023/12/30 10:41:00;;;;;;;5.70;2.45;;;8.60;99.90;;;;;;5055707;28;20215;-64
2023/12/30 10:43:27;;;;;;;3.55;2.42;;;8.60;99.90;;;;;;5054871;28;20697;-63
2023/12/30 10:45:58;;;;;;;3.22;2.13;;;8.60;99.90;;;;;;5055055;28;20205;-63
2023/12/30 10:48:30;;;;;;;3.60;2.00;;;8.60;99.90;;;;;;5054809;28;20243;-63
2023/12/30 10:50:58;;;;;;;6.32;1.98;;;8.60;99.90;;;;;;5055443;28;20212;-66
2023/12/30 10:53:28;;;;;;;4.53;2.03;;;8.70;99.90;;;;;;5055119;28;20232;-66
2023/12/30 10:55:58;;;;;;;6.13;2.33;;;8.70;99.90;;;;;;5055498;28;20204;-65
2023/12/30 10:58:26;;;;;;;5.70;2.45;;;8.70;99.90;;;;;;5059230;28;20185;-66
2023/12/30 11:00:54;;;;;;;5.00;2.13;;;8.80;99.90;;;;;;5059625;28;20216;-63
2023/12/30 11:03:21;;;;;;;3.40;2.05;;;8.80;99.90;;;;;;5060180;28;20232;-62
2023/12/30 11:05:57;;;;;;;3.90;2.30;;;8.80;99.90;;;;;;5062076;28;20206;-61
2023/12/30 11:08:24;;;;;;;7.95;2.75;;;8.80;99.90;;;;;;5063715;28;20193;-63
2023/12/30 11:10:51;;;;;;;4.82;3.03;;;8.80;99.90;;;;;;5064396;28;20227;-63
2023/12/30 11:13:19;;;;;;;6.72;1.95;;;8.90;99.90;;;;;;5055216;28;20248;-64
2023/12/30 11:15:46;;;;;;;6.97;2.47;;;8.90;99.90;;;;;;5058171;28;20203;-66
2023/12/30 11:18:13;;;;;;;3.20;2.20;;;8.80;99.90;;;;;;5056199;28;20296;-66
2023/12/30 11:20:45;;;;;;;8.30;2.75;;;8.80;99.90;;;;;;5055040;28;20212;-63
2023/12/30 11:23:15;;;;;;;6.40;2.50;;;8.90;99.90;;;;;;5055085;28;20241;-64
2023/12/30 11:25:44;;;;;;;4.43;1.98;;;8.90;99.90;;;;;;5054418;28;20186;-62
2023/12/30 11:28:17;;;;;;;6.68;2.45;;;9.00;99.90;;;;;;5053531;28;20672;-64
2023/12/30 11:30:45;;;;;;;6.55;2.30;;;9.00;99.90;;;;;;5053656;28;20213;-61
2023/12/30 11:33:13;;;;;;;5.82;2.50;;;9.00;99.90;;;;;;5053344;28;20230;-63
2023/12/30 11:35:40;;;;;;;5.63;2.53;;;9.00;99.90;;;;;;5053141;28;20228;-62
2023/12/30 11:38:08;;;;;;;5.03;2.45;;;9.10;99.90;;;;;;5053685;28;20201;-63
2023/12/30 11:40:41;;;;;;;9.30;2.47;;;9.10;99.90;;;;;;5053464;28;20201;-64
2023/12/30 11:43:10;;;;;;;4.80;2.30;;;9.10;99.90;;;;;;5053453;28;20308;-63
2023/12/30 11:45:37;;;;;;;5.10;1.93;;;9.10;99.90;;;;;;5055186;28;20197;-63
2023/12/30 11:48:05;;;;;;;9.32;2.45;;;9.10;99.90;;;;;;5054279;28;20910;-62
2023/12/30 11:50:31;;;;;;;10.45;2.42;;;9.00;99.90;;;;;;5054311;28;20217;-62
2023/12/30 11:53:00;;;;;;;3.42;2.20;;;9.10;99.90;;;;;;5053894;28;20229;-63
2023/12/30 11:55:27;;;;;;;6.88;2.38;;;9.10;99.90;;;;;;5053641;28;20206;-62
2023/12/30 11:57:56;;;;;;;5.40;2.20;;;9.00;99.90;;;;;;5053361;28;20236;-61
2023/12/30 12:00:26;;;;;;;2.75;1.60;;;9.00;99.90;;;;;;5053044;28;20667;-63
2023/12/30 12:02:52;;;;;;;8.05;2.05;;;9.00;99.90;;;;;;5066637;28;20586;-62
2023/12/30 12:05:20;;;;;;;8.95;2.25;;;9.10;99.90;;;;;;5054968;28;20206;-62
2023/12/30 12:07:47;;;;;;;3.95;2.13;;;9.10;99.90;;;;;;5053514;28;20198;-63
2023/12/30 12:10:14;;;;;;;7.55;2.13;;;9.10;99.90;;;;;;5053271;28;20223;-62
2023/12/30 12:12:45;;;;;;;8.50;2.85;;;9.10;99.90;;;;;;5052487;28;20732;-62
2023/12/30 12:15:13;;;;;;;3.50;2.10;;;9.10;99.90;;;;;;5053175;28;20202;-64
2023/12/30 12:17:41;;;;;;;7.32;2.22;;;9.20;99.90;;;;;;5053592;28;20198;-63
2023/12/30 12:20:10;;;;;;;4.78;2.20;;;9.20;99.90;;;;;;5054813;28;20205;-60
2023/12/30 12:22:37;;;;;;;5.75;2.80;;;9.20;99.90;;;;;;5053022;28;20279;-63
2023/12/30 12:25:05;;;;;;;5.20;2.72;;;9.20;99.90;;;;;;5053537;28;20202;-62
2023/12/30 12:27:33;;;;;;;7.18;2.08;;;9.10;99.90;;;;;;5053182;28;20202;-63
2023/12/30 12:29:59;;;;;;;7.03;2.15;;;9.10;99.90;;;;;;5053018;28;20259;-62
2023/12/30 12:32:28;;;;;;;6.60;2.90;;;9.20;99.90;;;;;;5053268;28;20222;-63
2023/12/30 12:34:54;;;;;;;6.45;3.25;;;9.20;99.90;;;;;;5057158;28;20225;-63
2023/12/30 12:37:22;;;;;;;10.63;3.17;;;9.20;99.90;;;;;;5056723;28;20208;-62
2023/12/30 12:39:49;;;;;;;8.43;2.65;;;9.20;99.90;;;;;;5057567;28;20440;-62
2023/12/30 12:42:16;;;;;;;8.38;2.67;;;9.20;99.90;;;;;;5056958;28;20218;-62
2023/12/30 12:44:43;;;;;;;4.00;2.00;;;9.20;99.90;;;;;;5057002;28;20209;-61
2023/12/30 12:47:10;;;;;;;5.90;2.75;;;9.20;99.90;;;;;;5056574;28;20521;-62
2023/12/30 12:49:40;;;;;;;3.90;2.25;;;9.30;99.90;;;;;;5057214;28;20208;-63
2023/12/30 12:52:07;;;;;;;4.60;1.92;;;9.40;99.90;;;;;;5056919;28;20244;-63
2023/12/30 12:54:34;;;;;;;10.50;2.20;;;9.40;99.90;;;;;;5057046;28;20222;-62
2023/12/30 12:57:00;;;;;;;9.18;2.60;;;9.40;99.90;;;;;;5057460;28;20432;-62
2023/12/30 12:59:27;;;;;;;5.23;2.37;;;9.40;99.90;;;;;;5056890;28;20689;-61